Time;durP1;ratioP1;P1;durP2;ratioP2;P2;SDS_P1;SDS_P2;PMS_P1;PMS_P2;Temp;Humidity;BMP_temperature;BMP_pressure;BME280_temperature;BME280_humidity;BME280_pressure;Samples;Min_cycle;Max_cycle;Signal;HPM_P1;HPM_P2
2024/04/12 00:01:42;;;;;;;;;;;14.60;99.90;;;14.93;71.69;102034.81;5528661;26;20270;-81
2024/04/12 00:04:15;;;;;;;;;;;14.60;99.90;;;14.92;71.70;102035.84;5528061;26;19938;-81
2024/04/12 00:06:42;;;;;;;;;;;14.60;99.90;;;14.91;71.75;102024.28;5528842;26;19934;-81
2024/04/12 00:09:17;;;;;;;;;;;14.60;99.90;;;14.90;71.54;102025.31;5527071;26;19935;-81
2024/04/12 00:11:44;;;;;;;;;;;14.60;99.90;;;14.93;71.47;102026.75;5559472;25;19934;-81
2024/04/12 00:14:16;;;;;;;;;;;14.60;99.90;;;14.94;71.64;102017.69;5528621;26;19927;-81
2024/04/12 00:16:43;;;;;;;;;;;14.60;99.90;;;14.96;71.47;102021.00;5528128;26;19927;-81
2024/04/12 00:19:18;;;;;;;;;;;14.60;99.90;;;14.95;71.46;102019.34;5529848;25;19936;-81
2024/04/12 00:21:46;;;;;;;;;;;14.60;99.90;;;14.96;71.39;102012.13;5528082;26;19928;-81
2024/04/12 00:24:16;;;;;;;;;;;14.60;99.90;;;14.96;71.64;102012.13;5530330;25;19939;-82
2024/04/12 00:26:45;;;;;;;;;;;14.60;99.90;;;14.96;71.72;102014.78;5529817;25;19955;-81
2024/04/12 00:29:25;;;;;;;;;;;14.60;99.90;;;14.94;71.68;102015.84;5530182;25;19927;-81
2024/04/12 00:31:53;;;;;;;;;;;14.60;99.90;;;14.94;71.83;102006.94;5530364;26;19928;-81
2024/04/12 00:34:26;;;;;;;;;;;14.60;99.90;;;14.93;71.76;102005.28;5530156;26;19933;-81
2024/04/12 00:36:54;;;;;;;;;;;14.60;99.90;;;14.93;71.96;102011.50;5527795;26;19943;-81
2024/04/12 00:39:35;;;;;;;;;;;14.60;99.90;;;14.92;71.89;102009.81;5529975;25;19981;-81
2024/04/12 00:42:07;;;;;;;;;;;14.60;99.90;;;14.91;71.73;102008.16;5530373;25;19935;-81
2024/04/12 00:44:40;;;;;;;;;;;14.60;99.90;;;14.90;71.95;102016.44;5529852;25;19934;-81
2024/04/12 00:47:10;;;;;;;;;;;14.60;99.90;;;14.92;72.10;102006.31;5530000;26;19934;-81
2024/04/12 00:49:41;;;;;;;;;;;14.60;99.90;;;14.91;72.04;102005.47;5529100;26;19934;-81
2024/04/12 00:52:12;;;;;;;;;;;14.40;99.90;;;14.91;71.96;102004.66;5527404;26;19927;-81
2024/04/12 00:54:42;;;;;;;;;;;14.60;99.90;;;14.91;71.83;102013.53;5499712;26;20383;-81
2024/04/12 00:57:10;;;;;;;;;;;14.60;99.90;;;14.90;71.88;102001.16;5492244;26;19928;-81
2024/04/12 00:59:42;;;;;;;;;;;14.60;99.90;;;14.91;71.67;102005.47;5492571;26;20263;-81
2024/04/12 01:02:08;;;;;;;;;;;14.60;99.90;;;14.91;71.75;102000.09;5490906;26;19936;-81
2024/04/12 01:04:39;;;;;;;;;;;14.60;99.90;;;14.91;71.81;101994.72;5491435;26;19928;-81
2024/04/12 01:07:06;;;;;;;;;;;14.60;99.90;;;14.92;71.70;101991.00;5490148;26;19935;-81
2024/04/12 01:09:36;;;;;;;;;;;14.60;99.90;;;14.92;71.46;101985.63;5491626;26;19928;-81
2024/04/12 01:12:04;;;;;;;;;;;14.60;99.90;;;14.92;71.90;101982.13;5492204;26;19935;-81
2024/04/12 01:14:36;;;;;;;;;;;14.60;99.90;;;14.91;71.57;101981.31;5489756;26;20303;-79
2024/04/12 01:17:10;;;;;;;;;;;14.60;99.90;;;14.91;72.06;101989.38;5525800;26;19935;-81
2024/04/12 01:19:40;;;;;;;;;;;14.60;99.90;;;14.93;71.63;101983.78;5459214;26;20385;-81
2024/04/12 01:22:07;;;;;;;;;;;14.60;99.90;;;14.92;71.87;101982.13;5492511;26;19928;-81
2024/04/12 01:24:42;;;;;;;;;;;14.60;99.90;;;14.91;71.88;101970.56;5461816;26;19973;-81
2024/04/12 01:27:08;;;;;;;;;;;14.60;99.90;;;14.91;72.21;101972.41;5492647;26;19932;-81
2024/04/12 01:29:37;;;;;;;;;;;14.60;99.90;;;14.91;71.97;101967.03;5492118;26;20004;-81
2024/04/12 01:32:05;;;;;;;;;;;14.60;99.90;;;14.90;72.34;101957.34;5492145;26;19981;-81
2024/04/12 01:34:34;;;;;;;;;;;14.60;99.90;;;14.90;72.19;101960.03;5473293;26;19928;-81
2024/04/12 01:37:03;;;;;;;;;;;14.60;99.90;;;14.90;72.17;101960.03;5492077;26;19935;-81
2024/04/12 01:39:34;;;;;;;;;;;14.60;99.90;;;14.89;71.93;101953.81;5491837;26;20325;-81
2024/04/12 01:42:06;;;;;;;;;;;14.60;99.90;;;14.89;71.78;101955.69;5491612;26;19932;-81
2024/04/12 01:44:37;;;;;;;;;;;14.60;99.90;;;14.89;71.98;101948.44;5461673;26;19932;-81
2024/04/12 01:47:04;;;;;;;;;;;14.60;99.90;;;14.88;72.18;101951.31;5496162;26;20274;-81
2024/04/12 01:49:34;;;;;;;;;;;14.50;99.90;;;14.88;72.10;101948.63;5491960;26;20043;-81
2024/04/12 01:52:01;;;;;;;;;;;14.50;99.90;;;14.87;72.34;101947.81;5492934;26;19928;-81
2024/04/12 01:54:33;;;;;;;;;;;14.50;99.90;;;14.88;71.91;101938.75;5493029;26;19928;-81
2024/04/12 01:57:03;;;;;;;;;;;14.50;99.90;;;14.84;72.31;101934.81;5493125;26;19960;-81
2024/04/12 01:59:35;;;;;;;;;;;14.50;99.90;;;14.83;72.20;101943.88;5492786;26;19935;-81
2024/04/12 02:02:04;;;;;;;;;;;14.50;99.90;;;14.85;72.27;101943.69;5493582;26;19935;-81
2024/04/12 02:04:34;;;;;;;;;;;14.50;99.90;;;14.85;72.07;101954.44;5463484;26;19956;-81
2024/04/12 02:07:00;;;;;;;;;;;14.50;99.90;;;14.86;72.21;101946.16;5497555;26;20279;-81
2024/04/12 02:09:29;;;;;;;;;;;14.50;99.90;;;14.87;71.87;101947.00;5492344;26;20326;-81
2024/04/12 02:11:57;;;;;;;;;;;14.50;99.90;;;14.86;72.12;101950.72;5493331;26;19928;-81
2024/04/12 02:14:28;;;;;;;;;;;14.50;99.90;;;14.86;72.20;101950.72;5488173;26;19935;-81
2024/04/12 02:16:58;;;;;;;;;;;14.50;99.90;;;14.85;72.21;101944.50;5529853;26;20395;-81
2024/04/12 02:19:27;;;;;;;;;;;14.50;99.90;;;14.84;72.39;101942.88;5529572;26;19952;-81
2024/04/12 02:21:53;;;;;;;;;;;14.50;99.90;;;14.84;72.22;101939.34;5531684;25;19927;-81
2024/04/12 02:24:23;;;;;;;;;;;14.50;99.90;;;14.82;72.62;101933.34;5437185;26;19934;-81
2024/04/12 02:26:50;;;;;;;;;;;14.50;99.90;;;14.84;72.43;101931.28;5529289;26;19999;-81
2024/04/12 02:29:21;;;;;;;;;;;14.50;99.90;;;14.83;72.05;101925.06;5531259;26;19943;-81
2024/04/12 02:31:47;;;;;;;;;;;14.50;99.90;;;14.83;72.23;101918.88;5499592;26;20434;-82
2024/04/12 02:34:19;;;;;;;;;;;14.50;99.90;;;14.83;72.11;101918.88;5530566;25;19995;-81
2024/04/12 02:36:48;;;;;;;;;;;14.50;99.90;;;14.80;71.99;101920.13;5529459;26;19928;-81
2024/04/12 02:39:22;;;;;;;;;;;14.50;99.90;;;14.81;72.49;101916.41;5529388;26;19935;-81
2024/04/12 02:41:49;;;;;;;;;;;14.50;99.90;;;14.80;72.51;101925.50;5497594;26;20468;-81
2024/04/12 02:44:17;;;;;;;;;;;14.50;99.90;;;14.82;72.52;101926.09;5531512;26;19927;-81
2024/04/12 02:46:44;;;;;;;;;;;14.50;99.90;;;14.81;72.75;101926.31;5531355;25;20431;-81
2024/04/12 02:49:14;;;;;;;;;;;14.50;99.90;;;14.80;72.70;101921.97;5529258;26;19973;-81
2024/04/12 02:51:47;;;;;;;;;;;14.50;99.90;;;14.79;72.81;101928.41;5531299;26;19935;-81
2024/04/12 02:54:16;;;;;;;;;;;14.50;99.90;;;14.79;72.66;101928.41;5529254;26;20272;-81
2024/04/12 02:56:44;;;;;;;;;;;14.50;99.90;;;14.78;72.59;101927.53;5530806;25;19932;-81
2024/04/12 02:59:15;;;;;;;;;;;14.50;99.90;;;14.80;72.53;101916.63;5530928;26;20391;-81
2024/04/12 03:01:41;;;;;;;;;;;14.50;99.90;;;14.80;72.77;101919.28;5529066;26;19934;-82
2024/04/12 03:04:10;;;;;;;;;;;14.50;99.90;;;14.80;72.52;101930.03;5530810;25;19994;-81
2024/04/12 03:06:38;;;;;;;;;;;14.50;99.90;;;14.80;72.51;101930.88;5434470;26;19928;-81
2024/04/12 03:09:11;;;;;;;;;;;14.50;99.90;;;14.80;73.00;101946.97;5493979;26;19956;-81
2024/04/12 03:11:37;;;;;;;;;;;14.50;99.90;;;14.76;72.99;101943.03;5493970;26;19939;-81
2024/04/12 03:14:08;;;;;;;;;;;14.50;99.90;;;14.76;73.18;101934.97;5461412;26;19934;-81
2024/04/12 03:16:35;;;;;;;;;;;14.50;99.90;;;14.78;73.35;101945.50;5492155;26;20275;-81
2024/04/12 03:19:07;;;;;;;;;;;14.50;99.90;;;14.77;73.78;101947.38;5461169;26;19931;-81
2024/04/12 03:21:35;;;;;;;;;;;14.50;99.90;;;14.75;73.75;101946.75;5492173;26;20274;-81
2024/04/12 03:24:04;;;;;;;;;;;14.50;99.90;;;14.73;74.09;101946.13;5492277;26;20003;-81
2024/04/12 03:26:34;;;;;;;;;;;14.50;99.90;;;14.74;73.72;101942.44;5432125;26;19928;-81
2024/04/12 03:29:04;;;;;;;;;;;14.50;99.90;;;14.77;73.80;101930.44;5526858;26;19959;-81
2024/04/12 03:31:33;;;;;;;;;;;14.50;99.90;;;14.76;73.93;101939.53;5530349;26;20278;-81
2024/04/12 03:34:06;;;;;;;;;;;14.50;99.90;;;14.75;73.75;101938.72;5498283;26;19938;-81
2024/04/12 03:36:53;;;;;;;;;;;14.50;99.90;;;14.75;74.09;101940.56;5530330;25;19934;-81
2024/04/12 03:39:34;;;;;;;;;;;14.50;99.90;;;14.74;74.31;101938.88;5531283;25;19934;-81
2024/04/12 03:42:08;;;;;;;;;;;14.50;99.90;;;14.72;74.76;101943.66;5503679;26;19981;-82
2024/04/12 03:44:38;;;;;;;;;;;14.50;99.90;;;14.75;74.63;101941.38;5490607;26;19934;-82
2024/04/12 03:47:07;;;;;;;;;;;14.50;99.90;;;14.72;75.18;101939.09;5492487;26;19939;-81
2024/04/12 03:49:39;;;;;;;;;;;14.50;99.90;;;14.71;75.06;101928.56;5491425;26;19928;-81
2024/04/12 03:52:11;;;;;;;;;;;14.40;99.90;;;14.67;75.52;101928.13;5492173;26;19948;-81
2024/04/12 03:54:40;;;;;;;;;;;14.40;99.90;;;14.67;75.29;101933.50;5493718;26;19997;-81
2024/04/12 03:57:09;;;;;;;;;;;14.40;99.90;;;14.67;75.53;101928.97;5493324;26;19935;-81
2024/04/12 03:59:42;;;;;;;;;;;14.40;99.90;;;14.68;75.17;101927.09;5494266;26;20450;-81
2024/04/12 04:02:13;;;;;;;;;;;14.40;99.90;;;14.69;75.46;101934.16;5491986;26;19935;-81
2024/04/12 04:04:44;;;;;;;;;;;14.40;99.90;;;14.70;75.59;101933.13;5493121;26;20243;-81
2024/04/12 04:07:14;;;;;;;;;;;14.40;99.90;;;14.70;75.47;101929.59;5516304;26;19928;-81
2024/04/12 04:09:42;;;;;;;;;;;14.40;99.90;;;14.69;75.69;101928.78;5528015;26;19927;-81
2024/04/12 04:12:14;;;;;;;;;;;14.40;99.90;;;14.70;75.49;101925.06;5528181;26;19947;-81
2024/04/12 04:14:47;;;;;;;;;;;14.40;99.90;;;14.66;75.74;101923.81;5518472;26;20379;-81
2024/04/12 04:17:18;;;;;;;;;;;14.40;99.90;;;14.69;75.73;101931.47;5493132;26;19928;-81
2024/04/12 04:19:45;;;;;;;;;;;14.40;99.90;;;14.69;75.68;101934.16;5492204;26;19960;-81
2024/04/12 04:22:39;;;;;;;;;;;14.40;99.90;;;14.61;76.39;101937.00;5490433;26;19996;-81
2024/04/12 04:25:07;;;;;;;;;;;14.40;99.90;;;14.59;76.26;101939.03;5491831;26;19928;-81
2024/04/12 04:27:40;;;;;;;;;;;14.30;99.90;;;14.57;76.45;101938.44;5489789;26;19931;-81
2024/04/12 04:30:07;;;;;;;;;;;14.30;99.90;;;14.55;76.40;101933.28;5492469;26;19935;-81
2024/04/12 04:32:36;;;;;;;;;;;14.30;99.90;;;14.57;76.49;101920.47;5490412;26;19931;-81
2024/04/12 04:35:08;;;;;;;;;;;14.30;99.90;;;14.58;76.63;101937.41;5490896;26;19928;-81
2024/04/12 04:37:39;;;;;;;;;;;14.30;99.90;;;14.58;76.45;101938.22;5463582;26;19928;-81
2024/04/12 04:40:11;;;;;;;;;;;14.30;99.90;;;14.54;76.91;101936.13;5490682;26;20398;-81
2024/04/12 04:42:45;;;;;;;;;;;14.30;99.90;;;14.54;76.69;101931.63;5490172;26;19952;-81
2024/04/12 04:45:17;;;;;;;;;;;14.30;99.90;;;14.54;77.01;101925.41;5492128;26;19927;-81
2024/04/12 04:47:47;;;;;;;;;;;14.30;99.90;;;14.58;76.77;101926.66;5492157;26;19935;-81
2024/04/12 04:50:13;;;;;;;;;;;14.30;99.90;;;14.59;76.64;101923.78;5490258;26;19935;-81
2024/04/12 04:52:44;;;;;;;;;;;14.30;99.90;;;14.59;76.38;101923.78;5460510;26;19928;-81
2024/04/12 04:55:12;;;;;;;;;;;14.30;99.90;;;14.59;76.77;101922.94;5506960;26;20000;-81
2024/04/12 04:57:54;;;;;;;;;;;14.30;99.90;;;14.60;76.52;101924.63;5530612;26;19934;-81
2024/04/12 05:00:22;;;;;;;;;;;14.30;99.90;;;14.59;76.22;101937.22;5530639;26;19936;-81
2024/04/12 05:02:53;;;;;;;;;;;14.30;99.90;;;14.58;76.95;101945.44;5530859;26;19927;-81
2024/04/12 05:05:22;;;;;;;;;;;14.30;99.90;;;14.56;76.91;101947.53;5533113;25;19933;-81
2024/04/12 05:07:52;;;;;;;;;;;14.30;99.90;;;14.56;77.08;101945.66;5531473;26;20271;-81
2024/04/12 05:10:22;;;;;;;;;;;14.30;99.90;;;14.56;77.24;101939.47;5533756;25;20402;-81
2024/04/12 05:12:53;;;;;;;;;;;14.20;99.90;;;14.54;77.38;101931.63;5530826;25;19935;-81
2024/04/12 05:15:49;;;;;;;;;;;14.30;99.90;;;14.50;77.39;101926.88;5530773;26;20431;-81
2024/04/12 05:18:18;;;;;;;;;;;14.30;99.90;;;14.51;77.73;101920.47;5534475;25;20267;-82
2024/04/12 05:20:47;;;;;;;;;;;14.30;99.90;;;14.52;77.60;101922.09;5533475;26;19935;-83
2024/04/12 05:23:17;;;;;;;;;;;14.20;99.90;;;14.48;77.97;101921.66;5499793;26;20353;-83
2024/04/12 05:25:44;;;;;;;;;;;14.20;99.90;;;14.49;77.77;101922.50;5534174;26;19931;-83
2024/04/12 05:28:18;;;;;;;;;;;14.30;99.90;;;14.49;77.95;101922.50;5500379;26;19928;-83
2024/04/12 05:30:47;;;;;;;;;;;14.30;99.90;;;14.48;78.18;101931.59;5530808;25;19927;-84
2024/04/12 05:33:17;;;;;;;;;;;14.20;99.90;;;14.50;78.18;101934.91;5531046;26;20343;-85
2024/04/12 05:35:45;;;;;;;;;;;14.20;99.90;;;14.52;78.24;101930.16;5532150;26;19927;-85
2024/04/12 05:38:20;;;;;;;;;;;14.30;99.90;;;14.53;78.08;101931.81;5501961;26;19931;-84
2024/04/12 05:40:52;;;;;;;;;;;14.30;99.90;;;14.57;78.14;101943.81;5531842;26;19943;-84
2024/04/12 05:43:24;;;;;;;;;;;14.30;99.90;;;14.57;78.49;101938.44;5531218;26;19934;-86
2024/04/12 05:45:53;;;;;;;;;;;14.30;99.90;;;14.55;78.60;101935.13;5532586;26;20024;-85
2024/04/12 05:48:22;;;;;;;;;;;14.30;99.90;;;14.50;78.58;101941.09;5531697;26;20285;-85
2024/04/12 05:50:50;;;;;;;;;;;14.30;99.90;;;14.54;78.85;101936.13;5524776;26;19931;-86
2024/04/12 05:53:20;;;;;;;;;;;14.30;99.90;;;14.57;78.35;101954.53;5515501;26;19931;-87
2024/04/12 05:55:52;;;;;;;;;;;14.30;99.90;;;14.55;78.72;101944.00;5494908;26;19934;-85
2024/04/12 05:58:25;;;;;;;;;;;14.40;99.90;;;14.50;79.14;101940.28;5494322;26;19928;-84
2024/04/12 06:00:51;;;;;;;;;;;14.30;99.90;;;14.51;79.19;101942.75;5501748;26;19928;-83
2024/04/12 06:03:25;;;;;;;;;;;14.30;99.90;;;14.54;79.08;101937.00;5525612;26;19928;-84
2024/04/12 06:05:55;;;;;;;;;;;14.40;99.90;;;14.57;79.42;101951.84;5492557;26;19928;-84
2024/04/12 06:08:24;;;;;;;;;;;14.40;99.90;;;14.59;79.13;101949.78;5491507;26;19952;-84
2024/04/12 06:10:51;;;;;;;;;;;14.40;99.90;;;14.51;79.65;101956.19;5464406;26;19935;-84
2024/04/12 06:13:23;;;;;;;;;;;14.40;99.90;;;14.55;79.26;101946.69;5495306;26;19998;-85
2024/04/12 06:15:54;;;;;;;;;;;14.40;99.90;;;14.55;79.88;101951.25;5463094;26;20374;-85
2024/04/12 06:18:24;;;;;;;;;;;14.40;99.90;;;14.50;80.02;101943.78;5496083;26;19939;-84
2024/04/12 06:20:51;;;;;;;;;;;14.30;99.90;;;14.50;79.99;101946.47;5507664;26;19932;-85
2024/04/12 06:23:20;;;;;;;;;;;14.40;99.90;;;14.51;80.01;101942.75;5530302;26;19934;-84
2024/04/12 06:25:49;;;;;;;;;;;14.40;99.90;;;14.51;79.99;101936.56;5500634;26;19927;-83
2024/04/12 06:28:19;;;;;;;;;;;14.30;99.90;;;14.48;79.97;101937.78;5500378;26;19939;-84
2024/04/12 06:30:47;;;;;;;;;;;14.30;99.90;;;14.49;80.06;101935.91;5490895;26;19964;-87
2024/04/12 06:33:22;;;;;;;;;;;14.30;99.90;;;14.51;80.01;101933.88;5461242;26;20245;-86
2024/04/12 06:35:49;;;;;;;;;;;14.30;99.90;;;14.47;80.26;101938.78;5433213;26;20273;-84
2024/04/12 06:38:21;;;;;;;;;;;14.30;99.90;;;14.51;80.09;101942.75;5495911;26;19978;-82
2024/04/12 06:40:52;;;;;;;;;;;14.30;99.90;;;14.50;80.32;101940.28;5497163;26;20287;-84
2024/04/12 06:43:21;;;;;;;;;;;14.40;99.90;;;14.51;80.11;101939.25;5551540;25;19955;-83
2024/04/12 06:45:56;;;;;;;;;;;14.30;99.90;;;14.55;80.41;101940.50;5492990;26;20356;-84
2024/04/12 06:48:28;;;;;;;;;;;14.40;99.90;;;14.55;80.28;101941.34;5492101;26;19927;-84
2024/04/12 06:50:56;;;;;;;;;;;14.40;99.90;;;14.56;80.36;101940.28;5493311;26;20000;-84
2024/04/12 06:53:25;;;;;;;;;;;14.40;99.90;;;14.59;80.15;101936.38;5493023;26;19938;-84
2024/04/12 06:55:55;;;;;;;;;;;14.40;99.90;;;14.62;79.96;101925.22;5530671;26;19936;-84
2024/04/12 06:58:25;;;;;;;;;;;14.50;99.90;;;14.63;80.11;101934.94;5467301;26;19928;-84
2024/04/12 07:00:54;;;;;;;;;;;14.50;99.90;;;14.65;80.11;101927.53;5528994;26;19934;-84
2024/04/12 07:03:22;;;;;;;;;;;14.50;99.90;;;14.58;80.46;101910.56;5507413;25;19928;-84
2024/04/12 07:05:54;;;;;;;;;;;14.50;99.90;;;14.59;80.37;101922.94;5493875;26;20000;-84
2024/04/12 07:08:26;;;;;;;;;;;14.50;99.90;;;14.63;80.30;101937.63;5461476;26;20239;-84
2024/04/12 07:10:53;;;;;;;;;;;14.50;99.90;;;14.61;80.18;101926.28;5494059;26;19960;-83
2024/04/12 07:13:27;;;;;;;;;;;14.50;99.90;;;14.64;80.51;101941.97;5492537;26;19935;-84
2024/04/12 07:15:55;;;;;;;;;;;14.50;99.90;;;14.66;80.38;101935.38;5492361;26;19934;-84
2024/04/12 07:18:26;;;;;;;;;;;14.60;99.90;;;14.66;80.53;101934.53;5466069;26;20303;-84
2024/04/12 07:21:14;;;;;;;;;;;14.60;99.90;;;14.64;80.63;101937.44;5497731;26;20391;-84
2024/04/12 07:23:46;;;;;;;;;;;14.60;99.90;;;14.64;80.80;101944.63;5498050;26;19928;-84
2024/04/12 07:26:14;;;;;;;;;;;14.60;99.90;;;14.65;80.56;101949.00;5532774;25;19935;-84
2024/04/12 07:28:43;;;;;;;;;;;14.70;99.90;;;14.66;80.83;101954.16;5533609;25;19928;-84
2024/04/12 07:31:10;;;;;;;;;;;14.70;99.90;;;14.69;80.91;101947.56;5531143;26;19935;-84
2024/04/12 07:33:39;;;;;;;;;;;14.70;99.90;;;14.67;81.10;101949.63;5503864;25;19934;-84
2024/04/12 07:36:16;;;;;;;;;;;14.80;99.90;;;14.73;81.12;101945.28;5495028;26;19946;-84
2024/04/12 07:38:49;;;;;;;;;;;14.80;99.90;;;14.76;81.17;101944.91;5496165;26;19934;-84
2024/04/12 07:41:15;;;;;;;;;;;14.80;99.90;;;14.85;81.61;101947.19;5494529;26;19928;-84
2024/04/12 07:43:46;;;;;;;;;;;14.90;99.90;;;14.92;82.20;101942.66;5495940;26;19928;-84
2024/04/12 07:46:14;;;;;;;;;;;15.00;99.90;;;14.95;81.67;101941.44;5494797;26;19953;-84
2024/04/12 07:48:48;;;;;;;;;;;15.10;99.90;;;15.02;81.74;101931.50;5518083;26;19928;-84
2024/04/12 07:51:20;;;;;;;;;;;15.10;99.90;;;15.10;81.58;101938.56;5502453;26;19927;-84
2024/04/12 07:53:51;;;;;;;;;;;15.20;99.90;;;15.17;81.56;101942.06;5522873;26;19959;-84
2024/04/12 07:56:20;;;;;;;;;;;15.30;99.90;;;15.15;80.58;101933.41;5494136;26;19927;-84
2024/04/12 07:59:01;;;;;;;;;;;15.30;99.90;;;15.16;80.47;101935.88;5494380;26;19928;-84
2024/04/12 08:01:30;;;;;;;;;;;15.40;99.90;;;15.20;80.69;101934.44;5496348;26;20361;-84
2024/04/12 08:04:05;;;;;;;;;;;15.40;99.90;;;15.17;79.63;101936.69;5495389;26;19991;-84
2024/04/12 08:06:37;;;;;;;;;;;15.40;99.90;;;15.18;79.85;101933.81;5495879;26;19928;-84
2024/04/12 08:09:21;;;;;;;;;;;15.40;99.90;;;15.18;79.92;101946.44;5522002;26;20375;-84
2024/04/12 08:11:51;;;;;;;;;;;15.40;99.90;;;15.19;79.55;101937.34;5526361;25;19940;-84
2024/04/12 08:14:22;;;;;;;;;;;15.30;99.90;;;15.21;79.89;101937.94;5498695;26;19928;-84
2024/04/12 08:16:55;;;;;;;;;;;15.40;99.90;;;15.22;79.97;101928.03;5497818;26;19977;-84
2024/04/12 08:19:37;;;;;;;;;;;15.40;99.90;;;15.27;80.00;101941.66;5495787;26;19996;-84
2024/04/12 08:22:06;;;;;;;;;;;15.40;99.90;;;15.28;79.77;101941.47;5495156;26;19935;-84
2024/04/12 08:24:35;;;;;;;;;;;15.40;99.90;;;15.30;79.17;101942.09;5496584;26;19928;-84
2024/04/12 08:27:02;;;;;;;;;;;15.40;99.90;;;15.33;79.41;101933.63;5496264;26;19939;-84
2024/04/12 08:29:32;;;;;;;;;;;15.50;99.90;;;15.37;79.39;101921.44;5461999;26;19932;-84
2024/04/12 08:32:04;;;;;;;;;;;15.50;99.90;;;15.34;78.74;101932.59;5498794;26;19928;-84
2024/04/12 08:34:34;;;;;;;;;;;15.50;99.90;;;15.35;78.83;101928.84;5498603;26;19996;-84
2024/04/12 08:37:03;;;;;;;;;;;15.50;99.90;;;15.42;79.22;101937.75;5497268;26;20369;-84
2024/04/12 08:39:42;;;;;;;;;;;15.50;99.90;;;15.38;79.20;101941.06;5499352;26;20259;-83
2024/04/12 08:42:10;;;;;;;;;;;15.60;99.90;;;15.44;79.26;101942.91;5503346;26;19981;-84
2024/04/12 08:44:40;;;;;;;;;;;15.60;99.90;;;15.48;79.11;101941.47;5496507;26;19944;-84
2024/04/12 08:47:16;;;;;;;;;;;15.70;99.90;;;15.56;79.36;101945.81;5524344;25;19934;-83
2024/04/12 08:49:51;;;;;;;;;;;15.80;99.90;;;15.63;78.70;101944.81;5501338;26;19934;-83
2024/04/12 08:52:24;;;;;;;;;;;15.80;99.90;;;15.74;78.92;101954.09;5514004;26;19927;-84
2024/04/12 08:54:59;;;;;;;;;;;15.90;99.90;;;15.68;78.02;101936.94;5535735;26;19927;-84
2024/04/12 08:57:26;;;;;;;;;;;15.90;99.90;;;15.71;77.87;101935.69;5535818;26;19955;-84
2024/04/12 08:59:58;;;;;;;;;;;15.90;99.90;;;15.77;78.02;101939.41;5537814;26;19927;-84
2024/04/12 09:02:28;;;;;;;;;;;16.00;99.90;;;15.79;77.78;101940.03;5534904;26;20277;-81
2024/04/12 09:04:57;;;;;;;;;;;16.00;99.90;;;15.79;78.04;101945.41;5533097;25;19928;-81
2024/04/12 09:07:24;;;;;;;;;;;16.00;99.90;;;15.77;77.53;101940.25;5498839;26;19935;-81
2024/04/12 09:09:56;;;;;;;;;;;16.00;99.90;;;15.76;77.02;101938.56;5521190;25;20307;-81
2024/04/12 09:12:24;;;;;;;;;;;16.00;99.90;;;15.85;78.19;101950.75;5494690;26;20465;-81
2024/04/12 09:14:55;;;;;;;;;;;16.10;99.90;;;15.90;77.57;101945.56;5496411;26;19959;-81
2024/04/12 09:17:27;;;;;;;;;;;16.10;99.90;;;15.95;77.52;101944.94;5501373;26;19928;-81
2024/04/12 09:19:57;;;;;;;;;;;16.20;99.90;;;15.94;77.05;101937.91;5494667;26;20431;-81
2024/04/12 09:22:27;;;;;;;;;;;16.20;99.90;;;15.91;77.01;101938.38;5495358;26;19940;-81
2024/04/12 09:25:14;;;;;;;;;;;16.20;99.90;;;15.93;77.38;101925.50;5495618;26;19935;-81
2024/04/12 09:27:44;;;;;;;;;;;16.10;99.90;;;15.96;76.51;101935.88;5442050;26;19928;-81
2024/04/12 09:33:00;;;;;;;;;;;16.20;99.90;;;16.02;76.74;101942.25;5496293;26;19928;-81
2024/04/12 09:35:34;;;;;;;;;;;16.20;99.90;;;16.03;76.68;101947.44;5494654;26;19939;-81
2024/04/12 09:38:05;;;;;;;;;;;16.30;99.90;;;16.10;76.51;101945.53;5511612;26;19995;-81
2024/04/12 09:40:40;;;;;;;;;;;16.40;99.90;;;16.16;76.43;101943.88;5531467;26;19935;-81
2024/04/12 09:46:00;;;;;;;;;;;16.50;99.90;;;16.27;77.48;101947.78;5526267;26;19927;-81
2024/04/12 10:39:13;;;;;;;;;;;17.00;99.90;;;16.68;75.29;101932.03;5536577;26;19927;-83
2024/04/12 10:41:45;;;;;;;;;;;16.90;99.90;;;16.71;75.31;101928.09;5532773;25;19928;-82
2024/04/12 10:44:16;;;;;;;;;;;17.00;99.90;;;16.74;75.49;101925.00;5501849;26;19927;-83
2024/04/12 10:46:50;;;;;;;;;;;17.00;99.90;;;16.78;75.45;101925.38;5532727;26;20399;-83
2024/04/12 10:49:16;;;;;;;;;;;17.00;99.90;;;16.83;75.23;101930.94;5522594;26;19955;-83
2024/04/12 10:51:45;;;;;;;;;;;17.00;99.90;;;16.87;75.02;101927.59;5494442;26;19935;-83
2024/04/12 10:54:11;;;;;;;;;;;17.20;99.90;;;16.92;74.61;101927.78;5493421;26;19932;-83
2024/04/12 10:56:47;;;;;;;;;;;17.20;99.90;;;16.99;74.66;101927.75;5494849;26;19944;-83
2024/04/12 10:59:26;;;;;;;;;;;17.30;99.90;;;17.08;75.46;101934.53;5496415;26;19935;-83
2024/04/12 11:01:59;;;;;;;;;;;17.40;99.90;;;17.14;74.95;101922.03;5496709;26;19939;-83
2024/04/12 11:04:34;;;;;;;;;;;17.50;99.90;;;17.19;74.49;101922.22;5495708;26;20018;-82
2024/04/12 11:07:03;;;;;;;;;;;17.50;99.90;;;17.24;74.68;101922.38;5463499;26;19928;-83
2024/04/12 11:09:38;;;;;;;;;;;17.50;99.90;;;17.23;73.33;101909.94;5504150;26;20389;-83
2024/04/12 11:12:10;;;;;;;;;;;17.60;99.90;;;17.28;73.62;101915.50;5494160;26;20363;-83
2024/04/12 11:14:38;;;;;;;;;;;17.60;99.90;;;17.31;73.05;101901.56;5496029;26;19928;-83
2024/04/12 11:31:14;;;;;;;;;;;17.80;99.90;;;17.53;72.76;101885.00;5535294;26;19982;-83
2024/04/12 11:33:52;;;;;;;;;;;17.90;99.90;;;17.51;71.96;101877.91;5530580;26;19928;-82
2024/04/12 11:36:23;;;;;;;;;;;17.80;99.90;;;17.53;72.55;101864.22;5532267;26;19934;-82
2024/04/12 11:38:53;;;;;;;;;;;17.90;99.90;;;17.49;70.84;101858.44;5531789;25;19934;-83
2024/04/12 11:41:24;;;;;;;;;;;17.80;99.90;;;17.54;72.20;101856.97;5530021;26;19938;-83
2024/04/12 11:43:52;;;;;;;;;;;17.90;99.90;;;17.57;71.87;101862.75;5531472;26;19931;-83
2024/04/12 11:46:23;;;;;;;;;;;17.90;99.90;;;17.65;72.11;101856.22;5531622;26;19927;-83
2024/04/12 11:49:07;;;;;;;;;;;18.00;99.90;;;17.75;73.31;101843.88;5530882;26;19928;-83
2024/04/12 11:51:33;;;;;;;;;;;18.10;99.90;;;17.83;70.81;101848.16;5530569;26;19927;-83
2024/04/12 11:54:05;;;;;;;;;;;18.20;99.90;;;17.90;72.56;101846.19;5531423;25;20339;-83
2024/04/12 11:56:32;;;;;;;;;;;18.30;99.90;;;17.93;71.05;101834.94;5531568;26;20029;-83
2024/04/12 11:59:03;;;;;;;;;;;18.30;99.90;;;18.02;70.66;101846.28;5529389;26;19935;-83
2024/04/12 12:01:30;;;;;;;;;;;18.40;99.90;;;18.08;71.37;101831.03;5530027;26;20382;-83
2024/04/12 12:04:05;;;;;;;;;;;18.40;99.90;;;18.19;71.00;101832.97;5529533;26;19934;-83
2024/04/12 12:06:34;;;;;;;;;;;18.50;99.90;;;18.24;69.50;101831.22;5530345;25;20391;-83
2024/04/12 12:09:11;;;;;;;;;;;18.60;99.90;;;18.30;70.95;101829.50;5531358;26;19927;-83
2024/04/12 12:11:37;;;;;;;;;;;18.70;99.90;;;18.37;69.73;101832.09;5515875;26;19927;-83
2024/04/12 12:14:07;;;;;;;;;;;18.70;99.90;;;18.41;70.42;101836.00;5462041;26;19932;-83
2024/04/12 12:16:33;;;;;;;;;;;18.80;99.90;;;18.37;69.56;101835.63;5492192;26;19935;-83
2024/04/12 12:19:07;;;;;;;;;;;18.80;99.90;;;18.41;70.34;101834.13;5492539;26;19996;-83
2024/04/12 12:21:36;;;;;;;;;;;18.80;99.90;;;18.59;67.70;101821.56;5493945;26;19928;-83
2024/04/12 12:24:03;;;;;;;;;;;18.90;99.90;;;18.62;67.87;101826.53;5492079;26;19928;-83
2024/04/12 12:26:32;;;;;;;;;;;19.00;99.90;;;18.50;67.25;101824.63;5492581;26;19928;-83
2024/04/12 12:28:59;;;;;;;;;;;18.90;99.90;;;18.38;67.47;101828.34;5494333;26;19996;-83
2024/04/12 12:31:29;;;;;;;;;;;18.70;99.90;;;18.29;68.23;101819.72;5493724;26;19928;-83
2024/04/12 12:33:55;;;;;;;;;;;18.60;99.90;;;18.24;68.68;101816.88;5461907;26;19928;-83
2024/04/12 12:36:27;;;;;;;;;;;18.50;99.90;;;18.23;67.23;101823.34;5491694;26;19932;-83